createdAt,value
2023-06-12T00:01:28.582Z,2.72
2023-06-12T00:05:14.149Z,2.72
2023-06-12T00:08:48.506Z,2.70
2023-06-12T00:11:55.958Z,2.77
2023-06-12T00:15:04.736Z,2.80
2023-06-12T00:18:07.694Z,3.00
2023-06-12T00:21:12.512Z,3.17
2023-06-12T00:24:15.259Z,2.83
2023-06-12T00:27:18.084Z,2.50
2023-06-12T00:30:21.154Z,2.60
2023-06-12T00:33:24.229Z,2.47
2023-06-12T00:36:28.346Z,2.53
2023-06-12T00:39:31.073Z,2.53
2023-06-12T00:42:35.147Z,2.67
2023-06-12T00:45:38.403Z,2.65
2023-06-12T00:48:42.083Z,3.85
2023-06-12T00:51:45.247Z,3.10
2023-06-12T00:54:51.592Z,2.70
2023-06-12T00:57:54.960Z,2.53
2023-06-12T01:00:58.052Z,2.70
2023-06-12T01:04:08.134Z,2.90
2023-06-12T01:07:30.574Z,2.95
2023-06-12T01:10:38.367Z,2.67
2023-06-12T01:13:41.596Z,2.80
2023-06-12T01:16:47.108Z,2.95
2023-06-12T01:19:50.284Z,2.95
2023-06-12T01:23:00.621Z,2.83
2023-06-12T01:26:15.179Z,2.83
2023-06-12T01:29:41.793Z,2.93
2023-06-12T01:32:51.493Z,3.20
2023-06-12T01:35:55.012Z,2.90
2023-06-12T01:39:02.213Z,3.22
2023-06-12T01:42:08.400Z,2.78
2023-06-12T01:45:11.667Z,3.23
2023-06-12T01:48:15.689Z,3.05
2023-06-12T01:51:19.485Z,3.10
2023-06-12T01:54:26.714Z,2.97
2023-06-12T01:57:29.819Z,2.97
2023-06-12T02:00:33.525Z,3.50
2023-06-12T02:03:38.561Z,3.20
2023-06-12T02:06:41.571Z,3.20
2023-06-12T02:09:44.646Z,3.10
2023-06-12T02:12:47.560Z,3.22
2023-06-12T02:15:50.712Z,2.73
2023-06-12T02:18:53.479Z,3.08
2023-06-12T02:21:58.034Z,3.42
2023-06-12T02:25:01.354Z,3.08
2023-06-12T02:28:04.893Z,2.97
2023-06-12T02:31:08.184Z,2.90
2023-06-12T02:34:12.049Z,2.78
2023-06-12T02:37:16.675Z,2.92
2023-06-12T02:40:22.170Z,3.30
2023-06-12T02:43:25.118Z,2.88
2023-06-12T02:46:29.751Z,2.90
2023-06-12T02:49:32.995Z,2.53
2023-06-12T02:52:36.529Z,3.42
2023-06-12T02:55:41.226Z,3.42
2023-06-12T02:58:46.297Z,3.45
2023-06-12T03:01:49.644Z,3.20
2023-06-12T03:05:01.427Z,3.15
2023-06-12T03:08:04.904Z,2.70
2023-06-12T03:11:08.471Z,2.88
2023-06-12T03:14:15.896Z,3.17
2023-06-12T03:17:20.421Z,3.03
2023-06-12T03:20:26.009Z,3.45
2023-06-12T03:23:29.228Z,2.90
2023-06-12T03:26:35.223Z,2.90
2023-06-12T03:29:38.148Z,3.00
2023-06-12T03:32:42.197Z,2.93
2023-06-12T03:35:45.239Z,3.03
2023-06-12T03:38:49.813Z,2.55
2023-06-12T03:41:58.070Z,2.70
2023-06-12T03:45:18.280Z,2.88
2023-06-12T03:48:21.329Z,2.73
2023-06-12T03:51:24.586Z,3.83
2023-06-12T03:54:28.499Z,2.53
2023-06-12T03:57:31.274Z,2.70
2023-06-12T04:00:34.038Z,2.60
2023-06-12T04:03:39.779Z,2.37
2023-06-12T04:06:43.272Z,2.33
2023-06-12T04:09:47.319Z,2.50
2023-06-12T04:12:50.588Z,3.35
2023-06-12T04:15:53.475Z,2.90
2023-06-12T04:18:58.949Z,2.53
2023-06-12T04:22:02.899Z,2.83
2023-06-12T04:25:08.103Z,2.50
2023-06-12T04:28:14.962Z,2.50
2023-06-12T04:31:17.880Z,2.63
2023-06-12T04:34:20.792Z,2.03
2023-06-12T04:37:24.245Z,2.42
2023-06-12T04:40:28.818Z,2.78
2023-06-12T04:43:33.408Z,2.53
2023-06-12T04:46:37.249Z,2.60
2023-06-12T04:49:42.932Z,2.27
2023-06-12T04:52:45.796Z,2.40
2023-06-12T04:55:51.583Z,2.95
2023-06-12T04:58:54.945Z,2.22
2023-06-12T05:01:59.305Z,2.20
2023-06-12T05:05:02.315Z,2.27
2023-06-12T05:08:05.390Z,2.30
2023-06-12T05:11:08.543Z,2.45
2023-06-12T05:14:11.558Z,2.10
2023-06-12T05:17:15.385Z,2.20
2023-06-12T05:20:18.919Z,2.10
2023-06-12T05:23:21.912Z,2.30
2023-06-12T05:26:24.791Z,2.45
2023-06-12T05:29:28.577Z,2.00
2023-06-12T05:32:31.532Z,2.50
2023-06-12T05:35:35.708Z,1.83
2023-06-12T05:38:40.225Z,2.22
2023-06-12T05:41:43.454Z,2.20
2023-06-12T05:44:47.848Z,1.95
2023-06-12T05:47:51.575Z,2.15
2023-06-12T05:50:55.089Z,2.00
2023-06-12T05:54:03.199Z,1.85
2023-06-12T05:57:07.175Z,2.08
2023-06-12T06:00:13.599Z,2.20
2023-06-12T06:03:21.470Z,2.20
2023-06-12T06:06:24.786Z,1.90
2023-06-12T06:09:28.954Z,1.75
2023-06-12T06:12:32.952Z,1.77
2023-06-12T06:15:36.926Z,1.90
2023-06-12T06:18:41.425Z,2.42
2023-06-12T06:21:44.591Z,2.10
2023-06-12T06:24:47.824Z,1.60
2023-06-12T06:27:51.498Z,2.38
2023-06-12T06:30:54.883Z,2.05
2023-06-12T06:33:57.745Z,2.08
2023-06-12T06:37:00.586Z,1.60
2023-06-12T06:40:06.179Z,2.13
2023-06-12T06:43:10.274Z,1.70
2023-06-12T06:46:24.720Z,1.77
2023-06-12T06:49:31.507Z,1.90
2023-06-12T06:52:34.931Z,1.90
2023-06-12T06:55:38.851Z,1.80
2023-06-12T06:58:50.748Z,1.98
2023-06-12T07:02:06.216Z,1.85
2023-06-12T07:05:09.984Z,1.85
2023-06-12T07:08:14.131Z,1.93
2023-06-12T07:11:19.968Z,1.90
2023-06-12T07:14:34.181Z,2.15
2023-06-12T07:17:40.144Z,1.77
2023-06-12T07:20:46.144Z,1.85
2023-06-12T07:23:54.953Z,1.80
2023-06-12T07:27:04.231Z,2.17
2023-06-12T07:30:07.886Z,1.83
2023-06-12T07:33:11.961Z,2.03
2023-06-12T07:36:16.946Z,2.05
2023-06-12T07:39:20.204Z,1.60
2023-06-12T07:42:24.616Z,1.52
2023-06-12T07:45:27.642Z,2.20
2023-06-12T07:48:31.591Z,1.90
2023-06-12T07:51:38.253Z,1.95
2023-06-12T07:54:41.678Z,1.73
2023-06-12T07:57:49.031Z,1.80
2023-06-12T08:04:50.410Z,2.20
2023-06-12T08:07:56.306Z,1.77
2023-06-12T08:11:27.263Z,2.00
2023-06-12T08:14:53.341Z,1.73
2023-06-12T08:18:01.236Z,1.88
2023-06-12T08:21:04.234Z,1.80
2023-06-12T08:24:19.785Z,3.97
2023-06-12T08:27:48.654Z,1.97
2023-06-12T08:31:00.744Z,1.60
2023-06-12T08:34:09.214Z,1.70
2023-06-12T08:37:19.075Z,2.00
2023-06-12T08:40:21.940Z,3.45
2023-06-12T08:43:24.989Z,3.40
2023-06-12T08:46:34.549Z,2.15
2023-06-12T08:49:38.667Z,4.30
2023-06-12T08:52:42.943Z,1.75
2023-06-12T08:55:49.008Z,1.60
2023-06-12T08:58:54.408Z,1.67
2023-06-12T09:02:14.724Z,1.60
2023-06-12T09:05:31.510Z,1.60
2023-06-12T09:08:37.454Z,1.90
2023-06-12T09:11:40.478Z,1.83
2023-06-12T09:14:47.026Z,2.10
2023-06-12T09:17:54.393Z,2.10
2023-06-12T09:21:01.633Z,1.80
2023-06-12T09:24:12.502Z,1.27
2023-06-12T09:28:08.525Z,1.80
2023-06-12T09:31:13.171Z,1.87
2023-06-12T09:34:16.099Z,1.23
2023-06-12T09:37:19.044Z,1.63
2023-06-12T09:40:21.978Z,1.50
2023-06-12T09:43:34.641Z,1.70
2023-06-12T09:46:40.045Z,1.40
2023-06-12T09:49:50.138Z,1.35
2023-06-12T09:52:58.552Z,1.80
2023-06-12T09:56:02.362Z,1.60
2023-06-12T09:59:24.622Z,1.45
2023-06-12T10:02:28.794Z,1.57
2023-06-12T10:13:12.185Z,0.95
2023-06-12T10:16:20.340Z,1.42
2023-06-12T10:19:44.422Z,1.13
2023-06-12T10:22:52.561Z,1.50
2023-06-12T10:26:27.052Z,1.33
2023-06-12T10:30:26.910Z,1.40
2023-06-12T10:34:17.463Z,0.90
2023-06-12T10:37:49.514Z,1.00
2023-06-12T10:40:57.583Z,1.50
2023-06-12T10:44:44.844Z,1.50
2023-06-12T10:48:09.484Z,1.08
2023-06-12T10:52:06.416Z,1.25
2023-06-12T10:55:24.110Z,1.73
2023-06-12T10:58:28.015Z,1.20
2023-06-12T11:01:40.453Z,1.00
2023-06-12T11:04:58.734Z,1.38
2023-06-12T11:08:10.616Z,1.40
2023-06-12T11:11:15.321Z,1.50
2023-06-12T11:14:27.224Z,1.52
2023-06-12T11:17:30.554Z,1.30
2023-06-12T11:20:34.478Z,1.27
2023-06-12T11:23:43.930Z,1.02
2023-06-12T11:26:51.082Z,1.30
2023-06-12T11:30:04.073Z,1.45
2023-06-12T11:33:15.385Z,1.88
2023-06-12T11:36:18.283Z,1.50
2023-06-12T11:42:27.236Z,1.00
2023-06-12T11:45:32.416Z,1.13
2023-06-12T11:51:41.186Z,1.50
2023-06-12T11:58:58.673Z,1.20
2023-06-12T12:02:04.367Z,1.20
2023-06-12T12:05:12.941Z,1.20
2023-06-12T12:08:17.373Z,1.00
2023-06-12T12:11:24.007Z,1.20
2023-06-12T12:14:29.639Z,1.10
2023-06-12T12:17:33.491Z,1.23
2023-06-12T12:20:37.727Z,1.30
2023-06-12T12:23:42.949Z,3.05
2023-06-12T12:26:52.689Z,1.20
2023-06-12T12:30:00.352Z,1.63
2023-06-12T12:33:03.894Z,1.42
2023-06-12T12:36:07.096Z,1.45
2023-06-12T12:39:17.295Z,2.22
2023-06-12T12:42:20.186Z,1.33
2023-06-12T12:45:22.970Z,0.90
2023-06-12T12:48:25.903Z,1.10
2023-06-12T12:51:30.952Z,2.00
2023-06-12T12:54:33.902Z,1.40
2023-06-12T12:57:38.644Z,1.52
2023-06-12T13:00:41.617Z,1.20
2023-06-12T13:03:45.541Z,1.17
2023-06-12T13:06:48.667Z,1.13
2023-06-12T13:09:51.856Z,1.08
2023-06-12T13:12:58.866Z,1.38
2023-06-12T13:16:02.818Z,1.20
2023-06-12T13:19:05.833Z,1.30
2023-06-12T13:22:08.727Z,1.40
2023-06-12T13:25:11.887Z,1.17
2023-06-12T13:28:15.001Z,0.80
2023-06-12T13:31:17.823Z,0.73
2023-06-12T13:34:20.617Z,1.20
2023-06-12T13:37:32.599Z,0.88
2023-06-12T13:40:35.566Z,0.95
2023-06-12T13:43:38.436Z,1.17
2023-06-12T13:46:42.197Z,1.10
2023-06-12T13:49:45.113Z,0.80
2023-06-12T13:52:47.998Z,1.50
2023-06-12T13:55:53.681Z,1.10
2023-06-12T13:58:58.891Z,1.20
2023-06-12T14:02:02.768Z,1.40
2023-06-12T14:05:09.723Z,1.00
2023-06-12T14:08:13.247Z,1.20
2023-06-12T14:11:16.069Z,1.55
2023-06-12T14:14:18.946Z,1.30
2023-06-12T14:17:22.255Z,1.10
2023-06-12T14:20:25.060Z,1.05
2023-06-12T14:23:28.378Z,1.13
2023-06-12T14:26:34.607Z,0.90
2023-06-12T14:29:37.484Z,1.27
2023-06-12T14:32:40.324Z,1.00
2023-06-12T14:35:44.180Z,1.00
2023-06-12T14:38:47.089Z,1.20
2023-06-12T14:41:49.966Z,0.90
2023-06-12T14:44:52.838Z,1.10
2023-06-12T14:47:57.255Z,0.93
2023-06-12T14:51:00.508Z,0.88
2023-06-12T14:54:03.452Z,1.10
2023-06-12T14:57:06.590Z,1.20
2023-06-12T15:00:11.303Z,0.90
2023-06-12T15:03:14.521Z,0.87
2023-06-12T15:06:18.023Z,1.05
2023-06-12T15:09:21.378Z,1.60
2023-06-12T15:12:24.949Z,1.10
2023-06-12T15:15:29.352Z,1.20
2023-06-12T15:21:38.241Z,1.60
2023-06-12T15:24:41.746Z,1.55
2023-06-12T15:27:44.760Z,1.60
2023-06-12T15:30:47.610Z,1.27
2023-06-12T15:33:50.478Z,1.47
2023-06-12T15:36:56.109Z,1.00
2023-06-12T15:39:59.176Z,1.23
2023-06-12T15:43:03.087Z,1.00
2023-06-12T15:46:08.701Z,1.20
2023-06-12T15:49:11.756Z,1.30
2023-06-12T15:52:14.648Z,1.00
2023-06-12T15:55:18.002Z,1.23
2023-06-12T15:58:20.959Z,1.35
2023-06-12T16:01:23.989Z,1.00
2023-06-12T16:04:30.327Z,1.60
2023-06-12T16:07:34.290Z,1.10
2023-06-12T16:10:37.336Z,1.17
2023-06-12T16:13:40.229Z,1.20
2023-06-12T16:16:43.338Z,1.02
2023-06-12T16:19:46.277Z,2.37
2023-06-12T16:22:49.299Z,1.33
2023-06-12T16:25:52.121Z,1.10
2023-06-12T16:28:56.280Z,1.20
2023-06-12T16:31:59.145Z,1.08
2023-06-12T16:35:02.151Z,0.93
2023-06-12T16:38:05.127Z,1.10
2023-06-12T16:41:07.936Z,1.15
2023-06-12T16:44:10.825Z,1.10
2023-06-12T16:47:14.119Z,1.35
2023-06-12T16:50:17.818Z,1.20
2023-06-12T16:53:20.661Z,1.30
2023-06-12T16:56:23.552Z,1.23
2023-06-12T16:59:27.480Z,1.90
2023-06-12T17:02:31.026Z,1.17
2023-06-12T17:05:34.081Z,1.20
2023-06-12T17:08:38.677Z,1.23
2023-06-12T17:11:41.864Z,1.30
2023-06-12T17:14:44.742Z,1.25
2023-06-12T17:17:47.645Z,1.10
2023-06-12T17:20:50.469Z,1.30
2023-06-12T17:23:53.638Z,1.55
2023-06-12T17:26:57.036Z,1.17
2023-06-12T17:30:00.384Z,1.20
2023-06-12T17:33:03.690Z,1.50
2023-06-12T17:36:06.885Z,1.53
2023-06-12T17:39:10.154Z,1.63
2023-06-12T17:42:13.092Z,1.42
2023-06-12T17:45:15.875Z,1.42
2023-06-12T17:48:19.086Z,1.40
2023-06-12T17:51:22.085Z,1.13
2023-06-12T17:54:25.716Z,1.33
2023-06-12T17:57:28.546Z,1.13
2023-06-12T18:00:31.596Z,1.50
2023-06-12T18:03:34.533Z,1.40
2023-06-12T18:06:37.722Z,1.50
2023-06-12T18:09:40.666Z,1.02
2023-06-12T18:12:43.533Z,1.40
2023-06-12T18:15:47.164Z,1.35
2023-06-12T18:18:50.602Z,1.27
2023-06-12T18:21:53.678Z,1.60
2023-06-12T18:24:59.300Z,1.50
2023-06-12T18:28:02.082Z,1.50
2023-06-12T18:31:05.148Z,1.20
2023-06-12T18:34:09.554Z,1.38
2023-06-12T18:37:12.297Z,1.57
2023-06-12T18:40:15.081Z,1.38
2023-06-12T18:43:20.166Z,1.55
2023-06-12T18:46:23.965Z,1.85
2023-06-12T18:49:27.015Z,1.70
2023-06-12T18:52:29.756Z,1.70
2023-06-12T18:55:32.663Z,1.80
2023-06-12T18:58:35.476Z,1.77
2023-06-12T19:01:38.326Z,1.77
2023-06-12T19:04:41.956Z,1.45
2023-06-12T19:07:45.128Z,1.77
2023-06-12T19:10:48.132Z,1.60
2023-06-12T19:13:51.529Z,1.80
2023-06-12T19:16:54.386Z,2.83
2023-06-12T19:19:57.978Z,2.13
2023-06-12T19:23:01.079Z,1.63
2023-06-12T19:26:04.167Z,2.15
2023-06-12T19:29:37.901Z,1.75
2023-06-12T19:33:06.794Z,1.52
2023-06-12T19:36:09.667Z,1.80
2023-06-12T19:39:12.604Z,1.43
2023-06-12T19:42:16.970Z,1.40
2023-06-12T19:45:21.815Z,1.95
2023-06-12T19:48:55.743Z,1.63
2023-06-12T19:51:58.781Z,1.50
2023-06-12T19:55:01.877Z,1.60
2023-06-12T19:58:04.864Z,1.67
2023-06-12T20:01:07.721Z,1.50
2023-06-12T20:04:10.620Z,1.25
2023-06-12T20:07:13.808Z,1.60
2023-06-12T20:10:16.982Z,1.43
2023-06-12T20:13:19.749Z,1.35
2023-06-12T20:16:22.613Z,1.42
2023-06-12T20:19:25.572Z,1.30
2023-06-12T20:22:28.370Z,1.27
2023-06-12T20:25:33.052Z,1.50
2023-06-12T20:28:36.089Z,1.55
2023-06-12T20:32:10.730Z,1.45
2023-06-12T20:35:14.961Z,1.30
2023-06-12T20:38:18.134Z,1.40
2023-06-12T20:41:21.156Z,1.37
2023-06-12T20:44:24.238Z,1.15
2023-06-12T20:47:27.185Z,1.38
2023-06-12T20:50:30.346Z,1.50
2023-06-12T20:53:35.932Z,1.23
2023-06-12T20:56:59.097Z,1.23
2023-06-12T21:00:02.252Z,2.00
2023-06-12T21:03:05.246Z,1.95
2023-06-12T21:06:08.284Z,1.95
2023-06-12T21:09:11.641Z,1.60
2023-06-12T21:12:14.534Z,1.53
2023-06-12T21:15:19.832Z,1.55
2023-06-12T21:18:23.147Z,1.50
2023-06-12T21:21:27.044Z,1.20
2023-06-12T21:24:29.918Z,1.52
2023-06-12T21:27:32.964Z,1.33
2023-06-12T21:30:35.701Z,1.20
2023-06-12T21:33:39.494Z,1.50
2023-06-12T21:36:42.333Z,1.30
2023-06-12T21:39:45.229Z,1.40
2023-06-12T21:42:47.973Z,1.33
2023-06-12T21:45:50.874Z,1.40
2023-06-12T21:48:53.645Z,1.48
2023-06-12T21:51:56.537Z,1.40
2023-06-12T21:54:59.381Z,1.70
2023-06-12T21:58:02.586Z,1.40
2023-06-12T22:01:05.606Z,1.30
2023-06-12T22:04:17.686Z,1.33
2023-06-12T22:07:20.563Z,1.60
2023-06-12T22:10:23.434Z,1.30
2023-06-12T22:13:27.014Z,1.10
2023-06-12T22:16:29.770Z,1.63
2023-06-12T22:19:32.694Z,1.20
2023-06-12T22:22:35.544Z,1.30
2023-06-12T22:25:38.641Z,1.40
2023-06-12T22:28:41.598Z,1.50
2023-06-12T22:31:44.594Z,1.30
2023-06-12T22:34:47.398Z,1.27
2023-06-12T22:37:51.794Z,1.17
2023-06-12T22:40:54.773Z,1.50
2023-06-12T22:43:57.497Z,1.30
2023-06-12T22:47:00.976Z,1.10
2023-06-12T22:50:10.404Z,1.42
2023-06-12T22:53:14.453Z,1.27
2023-06-12T22:56:20.350Z,1.40
2023-06-12T22:59:23.177Z,1.00
2023-06-12T23:02:26.122Z,1.02
2023-06-12T23:05:29.056Z,1.50
2023-06-12T23:08:32.026Z,1.40
2023-06-12T23:11:34.908Z,1.20
2023-06-12T23:14:37.690Z,1.20
2023-06-12T23:17:40.652Z,1.13
2023-06-12T23:20:45.317Z,1.25
2023-06-12T23:23:48.365Z,1.40
2023-06-12T23:26:52.715Z,1.50
2023-06-12T23:29:55.652Z,1.20
2023-06-12T23:32:58.618Z,1.40
2023-06-12T23:36:01.425Z,1.25
2023-06-12T23:39:04.457Z,1.13
2023-06-12T23:42:07.750Z,1.55
2023-06-12T23:45:11.044Z,1.30
2023-06-12T23:48:13.782Z,1.40
2023-06-12T23:51:25.561Z,1.20
2023-06-12T23:54:30.520Z,1.30
2023-06-12T23:57:33.304Z,1.40
